sensor_id;sensor_type;location;lat;lon;timestamp;temperature;humidity
810;DHT22;387;48.772;9.186;2023-03-14T00:00:37;10.30;92.90
810;DHT22;387;48.772;9.186;2023-03-14T00:03:03;10.40;92.90
810;DHT22;387;48.772;9.186;2023-03-14T00:05:29;10.40;92.90
810;DHT22;387;48.772;9.186;2023-03-14T00:07:54;10.40;93.00
810;DHT22;387;48.772;9.186;2023-03-14T00:10:20;10.30;93.10
810;DHT22;387;48.772;9.186;2023-03-14T00:12:46;10.30;93.10
810;DHT22;387;48.772;9.186;2023-03-14T00:15:12;10.30;93.20
810;DHT22;387;48.772;9.186;2023-03-14T00:17:38;10.30;93.30
810;DHT22;387;48.772;9.186;2023-03-14T00:20:05;10.30;93.30
810;DHT22;387;48.772;9.186;2023-03-14T00:22:37;10.30;93.30
810;DHT22;387;48.772;9.186;2023-03-14T00:25:04;10.30;93.10
810;DHT22;387;48.772;9.186;2023-03-14T00:27:30;10.40;93.00
810;DHT22;387;48.772;9.186;2023-03-14T00:29:56;10.40;92.60
810;DHT22;387;48.772;9.186;2023-03-14T00:32:22;10.40;92.30
810;DHT22;387;48.772;9.186;2023-03-14T00:34:47;10.50;92.10
810;DHT22;387;48.772;9.186;2023-03-14T00:37:13;10.50;92.00
810;DHT22;387;48.772;9.186;2023-03-14T00:39:39;10.50;91.90
810;DHT22;387;48.772;9.186;2023-03-14T00:42:05;10.50;91.80
810;DHT22;387;48.772;9.186;2023-03-14T00:44:30;10.50;91.80
810;DHT22;387;48.772;9.186;2023-03-14T00:46:57;10.60;91.70
810;DHT22;387;48.772;9.186;2023-03-14T00:49:23;10.60;91.50
810;DHT22;387;48.772;9.186;2023-03-14T00:51:48;10.60;91.40
810;DHT22;387;48.772;9.186;2023-03-14T00:54:14;10.60;91.40
810;DHT22;387;48.772;9.186;2023-03-14T00:56:40;10.60;91.10
810;DHT22;387;48.772;9.186;2023-03-14T00:59:05;10.60;91.00
810;DHT22;387;48.772;9.186;2023-03-14T01:01:31;10.60;91.00
810;DHT22;387;48.772;9.186;2023-03-14T01:03:56;10.60;91.20
810;DHT22;387;48.772;9.186;2023-03-14T01:06:27;10.60;91.20
810;DHT22;387;48.772;9.186;2023-03-14T01:08:53;10.60;91.20
810;DHT22;387;48.772;9.186;2023-03-14T01:11:24;10.60;91.20
810;DHT22;387;48.772;9.186;2023-03-14T01:13:51;10.70;91.00
810;DHT22;387;48.772;9.186;2023-03-14T01:16:19;10.70;91.00
810;DHT22;387;48.772;9.186;2023-03-14T01:18:45;10.70;91.00
810;DHT22;387;48.772;9.186;2023-03-14T01:21:14;10.60;91.20
810;DHT22;387;48.772;9.186;2023-03-14T01:23:40;10.70;91.20
810;DHT22;387;48.772;9.186;2023-03-14T01:26:12;10.70;91.20
810;DHT22;387;48.772;9.186;2023-03-14T01:28:38;10.70;91.20
810;DHT22;387;48.772;9.186;2023-03-14T01:31:05;10.60;91.10
810;DHT22;387;48.772;9.186;2023-03-14T01:33:31;10.70;91.20
810;DHT22;387;48.772;9.186;2023-03-14T01:35:57;10.70;91.20
810;DHT22;387;48.772;9.186;2023-03-14T01:38:22;10.70;90.90
810;DHT22;387;48.772;9.186;2023-03-14T01:40:48;10.80;90.70
810;DHT22;387;48.772;9.186;2023-03-14T01:43:16;10.70;90.50
810;DHT22;387;48.772;9.186;2023-03-14T01:48:42;10.70;90.40
810;DHT22;387;48.772;9.186;2023-03-14T01:51:12;10.70;90.30
810;DHT22;387;48.772;9.186;2023-03-14T01:53:39;10.70;90.00
810;DHT22;387;48.772;9.186;2023-03-14T01:56:06;10.70;89.60
810;DHT22;387;48.772;9.186;2023-03-14T01:58:32;10.70;88.70
810;DHT22;387;48.772;9.186;2023-03-14T02:01:01;10.80;88.70
810;DHT22;387;48.772;9.186;2023-03-14T02:03:29;10.70;88.40
810;DHT22;387;48.772;9.186;2023-03-14T02:05:57;10.70;88.00
810;DHT22;387;48.772;9.186;2023-03-14T02:08:27;10.70;87.70
810;DHT22;387;48.772;9.186;2023-03-14T02:10:53;10.80;87.80
810;DHT22;387;48.772;9.186;2023-03-14T02:13:20;10.80;87.70
810;DHT22;387;48.772;9.186;2023-03-14T02:15:47;10.80;87.70
810;DHT22;387;48.772;9.186;2023-03-14T02:18:13;10.80;87.80
810;DHT22;387;48.772;9.186;2023-03-14T02:26:05;10.60;89.00
810;DHT22;387;48.772;9.186;2023-03-14T02:28:34;10.60;89.20
810;DHT22;387;48.772;9.186;2023-03-14T02:30:59;10.60;89.60
810;DHT22;387;48.772;9.186;2023-03-14T02:33:25;10.60;89.20
810;DHT22;387;48.772;9.186;2023-03-14T02:35:56;10.60;89.30
810;DHT22;387;48.772;9.186;2023-03-14T02:38:31;10.50;89.00
810;DHT22;387;48.772;9.186;2023-03-14T02:40:58;10.50;89.30
810;DHT22;387;48.772;9.186;2023-03-14T02:43:24;10.50;89.30
810;DHT22;387;48.772;9.186;2023-03-14T02:45:51;10.50;89.30
810;DHT22;387;48.772;9.186;2023-03-14T02:48:28;10.50;89.20
810;DHT22;387;48.772;9.186;2023-03-14T02:50:57;10.50;89.00
810;DHT22;387;48.772;9.186;2023-03-14T02:53:26;10.50;89.00
810;DHT22;387;48.772;9.186;2023-03-14T02:55:52;10.50;89.00
810;DHT22;387;48.772;9.186;2023-03-14T02:58:18;10.40;89.00
810;DHT22;387;48.772;9.186;2023-03-14T03:00:44;10.40;88.90
810;DHT22;387;48.772;9.186;2023-03-14T03:03:10;10.40;88.70
810;DHT22;387;48.772;9.186;2023-03-14T03:05:36;10.40;88.70
810;DHT22;387;48.772;9.186;2023-03-14T03:08:02;10.40;88.10
810;DHT22;387;48.772;9.186;2023-03-14T03:10:28;10.50;87.80
810;DHT22;387;48.772;9.186;2023-03-14T03:12:54;10.50;87.40
810;DHT22;387;48.772;9.186;2023-03-14T03:15:20;10.50;87.00
810;DHT22;387;48.772;9.186;2023-03-14T03:17:45;10.50;87.00
810;DHT22;387;48.772;9.186;2023-03-14T03:20:11;10.50;86.80
810;DHT22;387;48.772;9.186;2023-03-14T03:22:37;10.50;86.60
810;DHT22;387;48.772;9.186;2023-03-14T03:25:05;10.50;86.30
810;DHT22;387;48.772;9.186;2023-03-14T03:27:32;10.50;86.30
810;DHT22;387;48.772;9.186;2023-03-14T03:29:58;10.50;85.50
810;DHT22;387;48.772;9.186;2023-03-14T03:32:24;10.50;85.70
810;DHT22;387;48.772;9.186;2023-03-14T03:34:50;10.50;85.00
810;DHT22;387;48.772;9.186;2023-03-14T03:37:15;10.50;84.90
810;DHT22;387;48.772;9.186;2023-03-14T03:39:41;10.50;85.00
810;DHT22;387;48.772;9.186;2023-03-14T03:42:06;10.50;84.30
810;DHT22;387;48.772;9.186;2023-03-14T03:44:32;10.50;83.30
810;DHT22;387;48.772;9.186;2023-03-14T03:46:58;10.50;83.00
810;DHT22;387;48.772;9.186;2023-03-14T03:49:23;10.50;82.70
810;DHT22;387;48.772;9.186;2023-03-14T03:51:49;10.50;82.20
810;DHT22;387;48.772;9.186;2023-03-14T03:54:14;10.50;81.90
810;DHT22;387;48.772;9.186;2023-03-14T03:56:40;10.40;82.10
810;DHT22;387;48.772;9.186;2023-03-14T03:59:05;10.40;81.50
810;DHT22;387;48.772;9.186;2023-03-14T04:01:31;10.40;81.70
810;DHT22;387;48.772;9.186;2023-03-14T04:03:57;10.40;81.20
810;DHT22;387;48.772;9.186;2023-03-14T04:06:22;10.40;80.90
810;DHT22;387;48.772;9.186;2023-03-14T04:08:48;10.40;80.30
810;DHT22;387;48.772;9.186;2023-03-14T04:11:13;10.40;80.30
810;DHT22;387;48.772;9.186;2023-03-14T04:13:39;10.40;79.90
810;DHT22;387;48.772;9.186;2023-03-14T04:16:12;10.40;79.90
810;DHT22;387;48.772;9.186;2023-03-14T04:18:39;10.40;80.00
810;DHT22;387;48.772;9.186;2023-03-14T04:21:05;10.40;79.70
810;DHT22;387;48.772;9.186;2023-03-14T04:23:30;10.40;80.00
810;DHT22;387;48.772;9.186;2023-03-14T04:25:56;10.40;79.90
810;DHT22;387;48.772;9.186;2023-03-14T04:28:21;10.30;79.90
810;DHT22;387;48.772;9.186;2023-03-14T04:30:47;10.40;79.90
810;DHT22;387;48.772;9.186;2023-03-14T04:33:13;10.30;79.50
810;DHT22;387;48.772;9.186;2023-03-14T04:35:43;10.30;79.70
810;DHT22;387;48.772;9.186;2023-03-14T04:38:08;10.30;79.70
810;DHT22;387;48.772;9.186;2023-03-14T04:40:39;10.20;79.70
810;DHT22;387;48.772;9.186;2023-03-14T04:43:06;10.30;79.50
810;DHT22;387;48.772;9.186;2023-03-14T04:45:31;10.30;79.50
810;DHT22;387;48.772;9.186;2023-03-14T04:47:57;10.30;79.70
810;DHT22;387;48.772;9.186;2023-03-14T04:50:23;10.20;79.70
810;DHT22;387;48.772;9.186;2023-03-14T04:52:48;10.20;80.00
810;DHT22;387;48.772;9.186;2023-03-14T04:55:14;10.20;80.00
810;DHT22;387;48.772;9.186;2023-03-14T04:57:40;10.20;80.00
810;DHT22;387;48.772;9.186;2023-03-14T05:00:06;10.10;80.00
810;DHT22;387;48.772;9.186;2023-03-14T05:02:32;10.10;80.20
810;DHT22;387;48.772;9.186;2023-03-14T05:04:58;10.10;80.30
810;DHT22;387;48.772;9.186;2023-03-14T05:07:23;10.10;80.30
810;DHT22;387;48.772;9.186;2023-03-14T05:09:49;10.10;80.20
810;DHT22;387;48.772;9.186;2023-03-14T05:12:14;10.10;80.30
810;DHT22;387;48.772;9.186;2023-03-14T05:14:40;10.00;80.30
810;DHT22;387;48.772;9.186;2023-03-14T05:17:05;10.00;80.30
810;DHT22;387;48.772;9.186;2023-03-14T05:19:31;10.00;80.20
810;DHT22;387;48.772;9.186;2023-03-14T05:21:57;10.00;80.20
810;DHT22;387;48.772;9.186;2023-03-14T05:24:23;10.00;80.20
810;DHT22;387;48.772;9.186;2023-03-14T05:26:48;10.00;80.20
810;DHT22;387;48.772;9.186;2023-03-14T05:29:14;10.00;80.30
810;DHT22;387;48.772;9.186;2023-03-14T05:31:39;10.00;80.20
810;DHT22;387;48.772;9.186;2023-03-14T05:34:05;10.00;80.00
810;DHT22;387;48.772;9.186;2023-03-14T05:36:30;10.00;80.00
810;DHT22;387;48.772;9.186;2023-03-14T05:38:56;10.00;79.90
810;DHT22;387;48.772;9.186;2023-03-14T05:41:21;10.00;80.20
810;DHT22;387;48.772;9.186;2023-03-14T05:43:47;10.00;80.00
810;DHT22;387;48.772;9.186;2023-03-14T05:46:13;10.00;79.70
810;DHT22;387;48.772;9.186;2023-03-14T05:48:38;10.00;79.90
810;DHT22;387;48.772;9.186;2023-03-14T05:51:04;10.00;79.60
810;DHT22;387;48.772;9.186;2023-03-14T05:53:30;10.00;79.60
810;DHT22;387;48.772;9.186;2023-03-14T05:55:56;10.00;79.50
810;DHT22;387;48.772;9.186;2023-03-14T05:58:22;10.10;79.50
810;DHT22;387;48.772;9.186;2023-03-14T06:00:48;10.10;79.50
810;DHT22;387;48.772;9.186;2023-03-14T06:03:14;10.10;79.00
810;DHT22;387;48.772;9.186;2023-03-14T06:05:39;10.20;78.90
810;DHT22;387;48.772;9.186;2023-03-14T06:08:05;10.10;79.20
810;DHT22;387;48.772;9.186;2023-03-14T06:10:31;10.20;78.90
810;DHT22;387;48.772;9.186;2023-03-14T06:12:56;10.10;79.20
810;DHT22;387;48.772;9.186;2023-03-14T06:15:22;10.10;79.00
810;DHT22;387;48.772;9.186;2023-03-14T06:17:48;10.10;79.20
810;DHT22;387;48.772;9.186;2023-03-14T06:20:13;10.10;78.70
810;DHT22;387;48.772;9.186;2023-03-14T06:22:39;10.10;78.60
810;DHT22;387;48.772;9.186;2023-03-14T06:25:06;10.10;78.30
810;DHT22;387;48.772;9.186;2023-03-14T06:27:32;10.20;78.10
810;DHT22;387;48.772;9.186;2023-03-14T06:29:58;10.20;78.00
810;DHT22;387;48.772;9.186;2023-03-14T06:32:23;10.20;78.00
810;DHT22;387;48.772;9.186;2023-03-14T06:34:50;10.20;77.80
810;DHT22;387;48.772;9.186;2023-03-14T06:37:15;10.30;78.00
810;DHT22;387;48.772;9.186;2023-03-14T06:39:41;10.30;78.00
810;DHT22;387;48.772;9.186;2023-03-14T06:42:07;10.30;77.80
810;DHT22;387;48.772;9.186;2023-03-14T06:44:32;10.40;77.70
810;DHT22;387;48.772;9.186;2023-03-14T06:46:58;10.40;77.60
810;DHT22;387;48.772;9.186;2023-03-14T06:49:23;10.40;77.60
810;DHT22;387;48.772;9.186;2023-03-14T06:51:50;10.40;77.40
810;DHT22;387;48.772;9.186;2023-03-14T06:54:16;10.40;77.40
810;DHT22;387;48.772;9.186;2023-03-14T06:56:41;10.40;76.50
810;DHT22;387;48.772;9.186;2023-03-14T06:59:07;10.50;76.70
810;DHT22;387;48.772;9.186;2023-03-14T07:01:33;10.50;76.70
810;DHT22;387;48.772;9.186;2023-03-14T07:04:00;10.60;76.40
810;DHT22;387;48.772;9.186;2023-03-14T07:06:27;10.70;76.20
810;DHT22;387;48.772;9.186;2023-03-14T07:08:55;10.80;75.90
810;DHT22;387;48.772;9.186;2023-03-14T07:11:21;10.90;75.20
810;DHT22;387;48.772;9.186;2023-03-14T07:13:47;10.90;74.90
810;DHT22;387;48.772;9.186;2023-03-14T07:16:12;11.00;74.80
810;DHT22;387;48.772;9.186;2023-03-14T07:18:38;11.00;74.80
810;DHT22;387;48.772;9.186;2023-03-14T07:21:05;11.00;74.60
810;DHT22;387;48.772;9.186;2023-03-14T07:23:31;11.00;74.30
810;DHT22;387;48.772;9.186;2023-03-14T07:25:57;11.10;74.50
810;DHT22;387;48.772;9.186;2023-03-14T07:28:22;11.10;73.90
810;DHT22;387;48.772;9.186;2023-03-14T07:30:48;11.10;74.00
810;DHT22;387;48.772;9.186;2023-03-14T07:33:14;11.20;74.00
810;DHT22;387;48.772;9.186;2023-03-14T07:35:40;11.20;73.70
810;DHT22;387;48.772;9.186;2023-03-14T07:38:05;11.20;73.90
810;DHT22;387;48.772;9.186;2023-03-14T07:40:31;11.30;74.20
810;DHT22;387;48.772;9.186;2023-03-14T07:42:56;11.40;73.50
810;DHT22;387;48.772;9.186;2023-03-14T07:45:22;11.40;73.60
810;DHT22;387;48.772;9.186;2023-03-14T07:47:48;11.40;73.30
810;DHT22;387;48.772;9.186;2023-03-14T07:50:14;11.50;73.20
810;DHT22;387;48.772;9.186;2023-03-14T07:52:39;11.50;72.60
810;DHT22;387;48.772;9.186;2023-03-14T07:55:05;11.60;72.70
810;DHT22;387;48.772;9.186;2023-03-14T07:57:31;11.60;72.40
810;DHT22;387;48.772;9.186;2023-03-14T07:59:57;11.70;72.40
810;DHT22;387;48.772;9.186;2023-03-14T08:02:22;11.70;72.40
810;DHT22;387;48.772;9.186;2023-03-14T08:04:50;11.70;72.00
810;DHT22;387;48.772;9.186;2023-03-14T08:07:16;11.70;72.10
810;DHT22;387;48.772;9.186;2023-03-14T08:09:41;11.70;72.00
810;DHT22;387;48.772;9.186;2023-03-14T08:12:07;11.80;72.00
810;DHT22;387;48.772;9.186;2023-03-14T08:14:33;11.80;72.00
810;DHT22;387;48.772;9.186;2023-03-14T08:16:58;11.90;71.70
810;DHT22;387;48.772;9.186;2023-03-14T08:19:24;12.10;71.40
810;DHT22;387;48.772;9.186;2023-03-14T08:21:50;12.10;70.70
810;DHT22;387;48.772;9.186;2023-03-14T08:24:15;12.10;71.00
810;DHT22;387;48.772;9.186;2023-03-14T08:26:41;12.10;70.80
810;DHT22;387;48.772;9.186;2023-03-14T08:29:07;12.20;70.50
810;DHT22;387;48.772;9.186;2023-03-14T08:31:37;12.40;70.10
810;DHT22;387;48.772;9.186;2023-03-14T08:34:03;12.40;69.20
810;DHT22;387;48.772;9.186;2023-03-14T08:36:28;12.50;69.40
810;DHT22;387;48.772;9.186;2023-03-14T08:38:54;12.60;69.10
810;DHT22;387;48.772;9.186;2023-03-14T08:41:20;12.80;68.80
810;DHT22;387;48.772;9.186;2023-03-14T08:43:45;12.90;68.30
810;DHT22;387;48.772;9.186;2023-03-14T08:46:11;13.00;68.30
810;DHT22;387;48.772;9.186;2023-03-14T08:48:37;13.00;67.70
810;DHT22;387;48.772;9.186;2023-03-14T08:51:10;12.90;67.30
810;DHT22;387;48.772;9.186;2023-03-14T08:53:38;12.70;68.20
810;DHT22;387;48.772;9.186;2023-03-14T08:56:04;12.70;68.30
810;DHT22;387;48.772;9.186;2023-03-14T08:58:31;12.80;68.50
810;DHT22;387;48.772;9.186;2023-03-14T09:00:57;12.80;68.80
810;DHT22;387;48.772;9.186;2023-03-14T09:03:23;12.90;68.80
810;DHT22;387;48.772;9.186;2023-03-14T09:05:50;13.00;68.80
810;DHT22;387;48.772;9.186;2023-03-14T09:08:16;13.00;68.60
810;DHT22;387;48.772;9.186;2023-03-14T09:10:41;12.80;68.90
810;DHT22;387;48.772;9.186;2023-03-14T09:13:07;12.70;69.70
810;DHT22;387;48.772;9.186;2023-03-14T09:15:33;12.60;69.90
810;DHT22;387;48.772;9.186;2023-03-14T09:17:59;12.50;70.50
810;DHT22;387;48.772;9.186;2023-03-14T09:20:24;12.40;70.80
810;DHT22;387;48.772;9.186;2023-03-14T09:22:50;12.40;71.30
810;DHT22;387;48.772;9.186;2023-03-14T09:25:15;12.50;71.70
810;DHT22;387;48.772;9.186;2023-03-14T09:27:41;12.60;72.30
810;DHT22;387;48.772;9.186;2023-03-14T09:30:07;12.60;71.70
810;DHT22;387;48.772;9.186;2023-03-14T09:32:33;12.50;71.70
810;DHT22;387;48.772;9.186;2023-03-14T09:34:59;12.60;72.10
810;DHT22;387;48.772;9.186;2023-03-14T09:37:24;12.60;71.70
810;DHT22;387;48.772;9.186;2023-03-14T09:39:50;12.70;71.70
810;DHT22;387;48.772;9.186;2023-03-14T09:42:18;12.60;72.10
810;DHT22;387;48.772;9.186;2023-03-14T09:44:57;12.70;72.10
810;DHT22;387;48.772;9.186;2023-03-14T09:47:25;12.60;71.80
810;DHT22;387;48.772;9.186;2023-03-14T09:49:51;12.70;71.80
810;DHT22;387;48.772;9.186;2023-03-14T09:52:24;12.60;71.40
810;DHT22;387;48.772;9.186;2023-03-14T09:54:54;12.60;71.30
810;DHT22;387;48.772;9.186;2023-03-14T09:57:24;12.60;70.70
810;DHT22;387;48.772;9.186;2023-03-14T09:59:52;12.70;70.50
810;DHT22;387;48.772;9.186;2023-03-14T10:02:25;12.70;69.90
810;DHT22;387;48.772;9.186;2023-03-14T10:04:52;12.70;70.10
810;DHT22;387;48.772;9.186;2023-03-14T10:07:30;12.80;70.20
810;DHT22;387;48.772;9.186;2023-03-14T10:09:56;12.80;70.20
810;DHT22;387;48.772;9.186;2023-03-14T10:12:36;12.90;70.20
810;DHT22;387;48.772;9.186;2023-03-14T10:15:08;12.70;70.50
810;DHT22;387;48.772;9.186;2023-03-14T10:17:50;12.70;71.00
810;DHT22;387;48.772;9.186;2023-03-14T10:20:36;12.70;70.70
810;DHT22;387;48.772;9.186;2023-03-14T10:25:42;12.80;70.20
810;DHT22;387;48.772;9.186;2023-03-14T10:28:26;13.00;70.20
810;DHT22;387;48.772;9.186;2023-03-14T10:30:53;13.20;69.20
810;DHT22;387;48.772;9.186;2023-03-14T10:33:24;13.30;68.60
810;DHT22;387;48.772;9.186;2023-03-14T10:35:59;13.20;68.50
810;DHT22;387;48.772;9.186;2023-03-14T10:38:31;13.10;68.30
810;DHT22;387;48.772;9.186;2023-03-14T10:40:57;13.10;68.50
810;DHT22;387;48.772;9.186;2023-03-14T10:43:31;13.10;68.80
810;DHT22;387;48.772;9.186;2023-03-14T10:46:00;13.20;68.60
810;DHT22;387;48.772;9.186;2023-03-14T10:48:38;13.20;68.60
810;DHT22;387;48.772;9.186;2023-03-14T10:56:15;13.40;68.50
810;DHT22;387;48.772;9.186;2023-03-14T10:58:49;13.30;68.80
810;DHT22;387;48.772;9.186;2023-03-14T11:04:03;13.10;69.70
810;DHT22;387;48.772;9.186;2023-03-14T11:09:15;12.80;71.40
810;DHT22;387;48.772;9.186;2023-03-14T11:11:45;12.60;72.40
810;DHT22;387;48.772;9.186;2023-03-14T11:14:34;12.50;73.00
810;DHT22;387;48.772;9.186;2023-03-14T11:17:27;12.30;73.60
810;DHT22;387;48.772;9.186;2023-03-14T11:20:12;12.20;73.50
810;DHT22;387;48.772;9.186;2023-03-14T11:28:50;11.80;75.40
810;DHT22;387;48.772;9.186;2023-03-14T11:31:33;11.60;75.90
810;DHT22;387;48.772;9.186;2023-03-14T11:34:15;11.50;77.00
810;DHT22;387;48.772;9.186;2023-03-14T11:37:03;11.40;77.80
810;DHT22;387;48.772;9.186;2023-03-14T11:39:39;11.30;78.30
810;DHT22;387;48.772;9.186;2023-03-14T11:42:18;11.30;79.00
810;DHT22;387;48.772;9.186;2023-03-14T11:44:46;11.30;78.30
810;DHT22;387;48.772;9.186;2023-03-14T11:47:39;11.50;76.20
810;DHT22;387;48.772;9.186;2023-03-14T11:52:44;11.50;77.10
810;DHT22;387;48.772;9.186;2023-03-14T11:55:19;11.60;78.00
810;DHT22;387;48.772;9.186;2023-03-14T11:57:47;11.60;78.10
810;DHT22;387;48.772;9.186;2023-03-14T12:00:19;11.40;79.30
810;DHT22;387;48.772;9.186;2023-03-14T12:03:32;11.40;80.00
810;DHT22;387;48.772;9.186;2023-03-14T12:06:24;11.40;78.10
810;DHT22;387;48.772;9.186;2023-03-14T12:09:02;11.50;77.10
810;DHT22;387;48.772;9.186;2023-03-14T12:14:27;11.70;77.30
810;DHT22;387;48.772;9.186;2023-03-14T12:16:56;11.90;76.70
810;DHT22;387;48.772;9.186;2023-03-14T12:24:28;11.50;79.30
810;DHT22;387;48.772;9.186;2023-03-14T12:26:57;11.40;80.60
810;DHT22;387;48.772;9.186;2023-03-14T12:29:23;11.30;79.30
810;DHT22;387;48.772;9.186;2023-03-14T12:32:07;11.70;78.00
810;DHT22;387;48.772;9.186;2023-03-14T12:34:41;12.00;73.70
810;DHT22;387;48.772;9.186;2023-03-14T12:37:14;12.00;72.00
810;DHT22;387;48.772;9.186;2023-03-14T12:40:53;11.80;69.90
810;DHT22;387;48.772;9.186;2023-03-14T12:43:01;11.80;71.10
810;DHT22;387;48.772;9.186;2023-03-14T12:45:31;12.00;70.20
810;DHT22;387;48.772;9.186;2023-03-14T12:50:40;11.60;66.90
810;DHT22;387;48.772;9.186;2023-03-14T12:56:24;12.00;65.00
810;DHT22;387;48.772;9.186;2023-03-14T13:02:18;12.30;61.20
810;DHT22;387;48.772;9.186;2023-03-14T13:05:00;12.00;61.00
810;DHT22;387;48.772;9.186;2023-03-14T13:12:50;11.30;60.30
810;DHT22;387;48.772;9.186;2023-03-14T13:17:46;10.90;60.70
810;DHT22;387;48.772;9.186;2023-03-14T13:20:24;10.70;60.10
810;DHT22;387;48.772;9.186;2023-03-14T13:22:52;10.90;59.90
810;DHT22;387;48.772;9.186;2023-03-14T13:25:17;11.10;59.30
810;DHT22;387;48.772;9.186;2023-03-14T13:27:47;11.50;58.50
810;DHT22;387;48.772;9.186;2023-03-14T13:32:43;11.30;57.40
810;DHT22;387;48.772;9.186;2023-03-14T13:35:27;11.10;57.00
810;DHT22;387;48.772;9.186;2023-03-14T13:37:59;10.90;56.00
810;DHT22;387;48.772;9.186;2023-03-14T13:40:30;10.70;56.40
810;DHT22;387;48.772;9.186;2023-03-14T13:43:16;10.90;57.00
810;DHT22;387;48.772;9.186;2023-03-14T13:48:16;10.90;56.90
810;DHT22;387;48.772;9.186;2023-03-14T13:51:06;11.10;56.60
810;DHT22;387;48.772;9.186;2023-03-14T13:56:12;10.90;56.00
810;DHT22;387;48.772;9.186;2023-03-14T13:58:39;10.90;56.10
810;DHT22;387;48.772;9.186;2023-03-14T14:01:31;10.80;56.20
810;DHT22;387;48.772;9.186;2023-03-14T14:03:58;10.80;56.80
810;DHT22;387;48.772;9.186;2023-03-14T14:08:59;10.50;54.10
810;DHT22;387;48.772;9.186;2023-03-14T14:11:40;10.60;54.80
810;DHT22;387;48.772;9.186;2023-03-14T14:14:30;10.60;52.40
810;DHT22;387;48.772;9.186;2023-03-14T14:16:58;10.40;51.60
810;DHT22;387;48.772;9.186;2023-03-14T14:19:27;10.40;51.30
810;DHT22;387;48.772;9.186;2023-03-14T14:21:54;10.50;51.60
810;DHT22;387;48.772;9.186;2023-03-14T14:24:22;10.40;51.20
810;DHT22;387;48.772;9.186;2023-03-14T14:27:00;10.40;51.60
810;DHT22;387;48.772;9.186;2023-03-14T14:29:33;10.40;51.40
810;DHT22;387;48.772;9.186;2023-03-14T14:34:55;10.20;51.40
810;DHT22;387;48.772;9.186;2023-03-14T14:37:22;10.00;51.60
810;DHT22;387;48.772;9.186;2023-03-14T14:39:51;9.70;52.50
810;DHT22;387;48.772;9.186;2023-03-14T14:42:20;9.70;52.90
810;DHT22;387;48.772;9.186;2023-03-14T14:44:47;9.60;53.40
810;DHT22;387;48.772;9.186;2023-03-14T14:47:19;9.70;53.80
810;DHT22;387;48.772;9.186;2023-03-14T14:49:47;9.80;54.00
810;DHT22;387;48.772;9.186;2023-03-14T14:54:59;9.90;53.30
810;DHT22;387;48.772;9.186;2023-03-14T14:57:27;10.00;53.60
810;DHT22;387;48.772;9.186;2023-03-14T14:59:59;9.90;53.00
810;DHT22;387;48.772;9.186;2023-03-14T15:02:41;9.80;53.20
810;DHT22;387;48.772;9.186;2023-03-14T15:05:20;9.70;54.00
810;DHT22;387;48.772;9.186;2023-03-14T15:07:46;9.80;54.00
810;DHT22;387;48.772;9.186;2023-03-14T15:10:14;9.90;54.00
810;DHT22;387;48.772;9.186;2023-03-14T15:12:40;9.80;53.70
810;DHT22;387;48.772;9.186;2023-03-14T15:15:10;9.80;54.00
810;DHT22;387;48.772;9.186;2023-03-14T15:17:36;10.10;53.80
810;DHT22;387;48.772;9.186;2023-03-14T15:20:03;10.30;52.80
810;DHT22;387;48.772;9.186;2023-03-14T15:22:32;10.30;52.60
810;DHT22;387;48.772;9.186;2023-03-14T15:24:57;10.70;52.60
810;DHT22;387;48.772;9.186;2023-03-14T15:27:23;11.20;51.20
810;DHT22;387;48.772;9.186;2023-03-14T15:29:49;11.60;49.80
810;DHT22;387;48.772;9.186;2023-03-14T15:32:16;11.50;49.30
810;DHT22;387;48.772;9.186;2023-03-14T15:34:43;11.10;50.20
810;DHT22;387;48.772;9.186;2023-03-14T15:37:14;10.70;51.30
810;DHT22;387;48.772;9.186;2023-03-14T15:39:42;10.50;52.10
810;DHT22;387;48.772;9.186;2023-03-14T15:42:08;10.50;52.00
810;DHT22;387;48.772;9.186;2023-03-14T15:44:34;10.60;52.40
810;DHT22;387;48.772;9.186;2023-03-14T15:47:00;10.60;52.60
810;DHT22;387;48.772;9.186;2023-03-14T15:49:25;10.30;53.30
810;DHT22;387;48.772;9.186;2023-03-14T15:51:51;10.30;53.80
810;DHT22;387;48.772;9.186;2023-03-14T15:54:16;10.40;53.00
810;DHT22;387;48.772;9.186;2023-03-14T15:56:42;10.40;52.90
810;DHT22;387;48.772;9.186;2023-03-14T15:59:08;10.40;53.60
810;DHT22;387;48.772;9.186;2023-03-14T16:01:33;10.40;53.60
810;DHT22;387;48.772;9.186;2023-03-14T16:03:59;10.40;53.60
810;DHT22;387;48.772;9.186;2023-03-14T16:06:24;10.30;54.00
810;DHT22;387;48.772;9.186;2023-03-14T16:08:50;10.30;54.60
810;DHT22;387;48.772;9.186;2023-03-14T16:11:16;10.20;54.50
810;DHT22;387;48.772;9.186;2023-03-14T16:13:46;10.00;55.00
810;DHT22;387;48.772;9.186;2023-03-14T16:16:11;10.00;54.80
810;DHT22;387;48.772;9.186;2023-03-14T16:18:40;10.10;55.40
810;DHT22;387;48.772;9.186;2023-03-14T16:21:10;10.10;55.40
810;DHT22;387;48.772;9.186;2023-03-14T16:23:36;10.10;55.40
810;DHT22;387;48.772;9.186;2023-03-14T16:26:06;10.00;56.00
810;DHT22;387;48.772;9.186;2023-03-14T16:28:33;9.80;56.60
810;DHT22;387;48.772;9.186;2023-03-14T16:31:07;9.70;57.20
810;DHT22;387;48.772;9.186;2023-03-14T16:33:34;9.60;57.40
810;DHT22;387;48.772;9.186;2023-03-14T16:36:02;9.60;58.00
810;DHT22;387;48.772;9.186;2023-03-14T16:38:34;9.70;58.00
810;DHT22;387;48.772;9.186;2023-03-14T16:41:04;9.50;57.70
810;DHT22;387;48.772;9.186;2023-03-14T16:43:30;9.50;58.40
810;DHT22;387;48.772;9.186;2023-03-14T16:45:57;9.50;58.40
810;DHT22;387;48.772;9.186;2023-03-14T16:48:24;9.60;58.70
810;DHT22;387;48.772;9.186;2023-03-14T16:50:50;9.60;58.50
810;DHT22;387;48.772;9.186;2023-03-14T16:53:16;9.60;58.70
810;DHT22;387;48.772;9.186;2023-03-14T16:55:42;9.50;58.40
810;DHT22;387;48.772;9.186;2023-03-14T16:58:08;9.40;59.10
810;DHT22;387;48.772;9.186;2023-03-14T17:00:34;9.50;59.30
810;DHT22;387;48.772;9.186;2023-03-14T17:03:00;9.50;59.30
810;DHT22;387;48.772;9.186;2023-03-14T17:05:25;9.60;59.10
810;DHT22;387;48.772;9.186;2023-03-14T17:07:51;9.60;58.90
810;DHT22;387;48.772;9.186;2023-03-14T17:10:17;9.40;58.90
810;DHT22;387;48.772;9.186;2023-03-14T17:12:43;9.30;59.20
810;DHT22;387;48.772;9.186;2023-03-14T17:15:09;9.30;59.50
810;DHT22;387;48.772;9.186;2023-03-14T17:17:35;9.40;59.50
810;DHT22;387;48.772;9.186;2023-03-14T17:20:02;9.40;59.70
810;DHT22;387;48.772;9.186;2023-03-14T17:22:28;9.40;59.90
810;DHT22;387;48.772;9.186;2023-03-14T17:24:53;9.50;59.70
810;DHT22;387;48.772;9.186;2023-03-14T17:27:19;9.50;59.90
810;DHT22;387;48.772;9.186;2023-03-14T17:29:46;9.60;59.90
810;DHT22;387;48.772;9.186;2023-03-14T17:32:13;9.50;61.70
810;DHT22;387;48.772;9.186;2023-03-14T17:34:38;9.10;68.20
810;DHT22;387;48.772;9.186;2023-03-14T17:37:04;8.80;70.70
810;DHT22;387;48.772;9.186;2023-03-14T17:39:30;8.50;73.50
810;DHT22;387;48.772;9.186;2023-03-14T17:41:55;8.20;74.00
810;DHT22;387;48.772;9.186;2023-03-14T17:44:21;8.10;74.60
810;DHT22;387;48.772;9.186;2023-03-14T17:46:47;7.80;74.90
810;DHT22;387;48.772;9.186;2023-03-14T17:49:13;7.80;75.50
810;DHT22;387;48.772;9.186;2023-03-14T17:51:39;7.70;75.50
810;DHT22;387;48.772;9.186;2023-03-14T17:54:04;7.60;75.80